createdAt,value
2018-09-19T00:00:45.150Z,5.53
2018-09-19T00:03:15.259Z,6.77
2018-09-19T00:05:44.521Z,6.70
2018-09-19T00:08:13.833Z,6.00
2018-09-19T00:10:43.121Z,6.30
2018-09-19T00:13:12.356Z,6.00
2018-09-19T00:15:41.667Z,5.67
2018-09-19T00:18:10.944Z,5.90
2018-09-19T00:20:40.274Z,5.57
2018-09-19T00:23:09.509Z,5.30
2018-09-19T00:25:38.772Z,5.77
2018-09-19T00:28:08.076Z,5.50
2018-09-19T00:30:37.371Z,5.77
2018-09-19T00:33:06.636Z,5.97
2018-09-19T00:35:36.095Z,5.80
2018-09-19T00:38:05.349Z,5.17
2018-09-19T00:40:34.653Z,5.40
2018-09-19T00:43:03.896Z,6.03
2018-09-19T00:45:33.154Z,5.10
2018-09-19T00:48:02.396Z,5.87
2018-09-19T00:50:31.679Z,5.90
2018-09-19T00:53:01.325Z,5.50
2018-09-19T00:55:30.658Z,5.30
2018-09-19T00:58:00.199Z,5.47
2018-09-19T01:00:29.497Z,5.90
2018-09-19T01:02:58.792Z,5.60
2018-09-19T01:05:28.186Z,4.97
2018-09-19T01:07:57.456Z,4.60
2018-09-19T01:10:26.789Z,5.00
2018-09-19T01:12:56.097Z,4.50
2018-09-19T01:15:25.400Z,4.63
2018-09-19T01:17:54.698Z,5.40
2018-09-19T01:20:23.943Z,4.93
2018-09-19T01:22:53.213Z,4.87
2018-09-19T01:25:22.501Z,5.63
2018-09-19T01:27:51.759Z,4.77
2018-09-19T01:30:21.051Z,5.50
2018-09-19T01:32:50.358Z,4.23
2018-09-19T01:35:19.699Z,4.70
2018-09-19T01:37:49.024Z,4.70
2018-09-19T01:40:18.320Z,4.90
2018-09-19T01:42:47.616Z,4.60
2018-09-19T01:45:16.893Z,4.50
2018-09-19T01:47:46.182Z,4.87
2018-09-19T01:50:15.433Z,4.73
2018-09-19T01:52:44.722Z,5.13
2018-09-19T01:55:14.003Z,4.80
2018-09-19T01:57:43.320Z,4.40
2018-09-19T02:00:12.636Z,5.23
2018-09-19T02:02:41.921Z,4.80
2018-09-19T02:05:11.176Z,4.47
2018-09-19T02:07:40.464Z,4.60
2018-09-19T02:10:09.726Z,4.63
2018-09-19T02:12:39.022Z,4.90
2018-09-19T02:15:08.279Z,4.53
2018-09-19T02:17:37.576Z,4.60
2018-09-19T02:20:06.990Z,4.80
2018-09-19T02:22:36.274Z,4.70
2018-09-19T02:25:05.528Z,4.43
2018-09-19T02:27:34.801Z,5.67
2018-09-19T02:30:04.073Z,4.40
2018-09-19T02:32:33.391Z,4.40
2018-09-19T02:35:02.650Z,4.27
2018-09-19T02:37:31.986Z,4.30
2018-09-19T02:40:01.297Z,4.10
2018-09-19T02:42:30.606Z,4.70
2018-09-19T02:44:59.864Z,4.37
2018-09-19T02:47:29.140Z,4.20
2018-09-19T02:49:58.405Z,4.73
2018-09-19T02:52:27.654Z,4.37
2018-09-19T02:54:57.018Z,4.27
2018-09-19T02:57:26.278Z,4.43
2018-09-19T02:59:55.555Z,4.93
2018-09-19T03:02:24.793Z,4.57
2018-09-19T03:04:54.077Z,4.80
2018-09-19T03:07:23.345Z,4.17
2018-09-19T03:09:52.594Z,4.20
2018-09-19T03:12:21.881Z,4.73
2018-09-19T03:14:51.184Z,4.60
2018-09-19T03:17:20.484Z,5.43
2018-09-19T03:19:49.743Z,6.20
2018-09-19T03:22:19.035Z,6.17
2018-09-19T03:24:48.325Z,6.17
2018-09-19T03:27:17.668Z,6.10
2018-09-19T03:29:46.921Z,5.67
2018-09-19T03:32:16.212Z,6.47
2018-09-19T03:34:45.481Z,5.70
2018-09-19T03:37:14.721Z,5.67
2018-09-19T03:39:43.974Z,6.27
2018-09-19T03:42:13.213Z,5.40
2018-09-19T03:44:42.452Z,5.50
2018-09-19T03:47:11.659Z,6.00
2018-09-19T03:49:40.911Z,5.30
2018-09-19T03:52:10.776Z,5.60
2018-09-19T03:54:40.041Z,5.10
2018-09-19T03:57:09.352Z,5.90
2018-09-19T03:59:38.627Z,4.97
2018-09-19T04:02:07.969Z,5.47
2018-09-19T04:04:37.265Z,5.17
2018-09-19T04:07:06.585Z,4.10
2018-09-19T04:09:35.891Z,4.00
2018-09-19T04:12:05.170Z,4.40
2018-09-19T04:14:34.535Z,4.40
2018-09-19T04:17:03.826Z,4.30
2018-09-19T04:19:33.128Z,4.80
2018-09-19T04:22:02.477Z,4.23
2018-09-19T04:24:31.766Z,4.03
2018-09-19T04:27:01.238Z,4.37
2018-09-19T04:29:30.555Z,4.10
2018-09-19T04:31:59.917Z,4.20
2018-09-19T04:34:29.191Z,3.80
2018-09-19T04:36:58.488Z,4.17
2018-09-19T04:39:27.758Z,4.50
2018-09-19T04:41:57.063Z,4.30
2018-09-19T04:44:26.382Z,4.20
2018-09-19T04:46:55.925Z,4.13
2018-09-19T04:49:26.769Z,4.10
2018-09-19T04:51:56.211Z,5.07
2018-09-19T04:54:25.521Z,3.97
2018-09-19T04:56:54.827Z,5.00
2018-09-19T04:59:24.089Z,5.07
2018-09-19T05:01:53.459Z,5.03
2018-09-19T05:04:22.740Z,5.27
2018-09-19T05:06:52.345Z,4.93
2018-09-19T05:09:21.643Z,5.80
2018-09-19T05:11:50.931Z,4.70
2018-09-19T05:14:20.199Z,4.27
2018-09-19T05:16:49.579Z,4.50
2018-09-19T05:19:18.819Z,4.33
2018-09-19T05:21:48.158Z,5.93
2018-09-19T05:24:17.394Z,4.20
2018-09-19T05:26:46.785Z,4.47
2018-09-19T05:29:16.060Z,4.60
2018-09-19T05:31:45.409Z,4.87
2018-09-19T05:34:14.601Z,4.70
2018-09-19T05:36:43.921Z,5.47
2018-09-19T05:39:13.228Z,5.20
2018-09-19T05:41:42.518Z,5.23
2018-09-19T05:44:11.821Z,5.53
2018-09-19T05:46:41.107Z,5.07
2018-09-19T05:49:10.404Z,5.30
2018-09-19T05:51:39.702Z,5.63
2018-09-19T05:54:10.116Z,5.20
2018-09-19T05:56:39.633Z,5.27
2018-09-19T05:59:08.909Z,5.20
2018-09-19T06:01:38.204Z,5.73
2018-09-19T06:04:07.465Z,5.67
2018-09-19T06:06:36.872Z,4.90
2018-09-19T06:09:08.376Z,4.87
2018-09-19T06:11:37.886Z,5.10
2018-09-19T06:14:07.278Z,4.70
2018-09-19T06:16:36.696Z,4.20
2018-09-19T06:19:06.210Z,4.03
2018-09-19T06:21:35.499Z,4.10
2018-09-19T06:24:04.795Z,4.50
2018-09-19T06:26:34.148Z,4.60
2018-09-19T06:29:03.373Z,4.00
2018-09-19T06:31:32.651Z,4.63
2018-09-19T06:34:01.921Z,4.20
2018-09-19T06:36:31.245Z,3.93
2018-09-19T06:39:01.013Z,3.90
2018-09-19T06:41:30.326Z,4.40
2018-09-19T06:43:59.572Z,4.27
2018-09-19T06:46:28.941Z,4.60
2018-09-19T06:48:58.192Z,4.30
2018-09-19T06:51:27.727Z,5.20
2018-09-19T06:53:57.273Z,4.80
2018-09-19T06:56:27.341Z,4.77
2018-09-19T06:58:56.709Z,4.57
2018-09-19T07:01:26.364Z,4.33
2018-09-19T07:03:55.695Z,4.77
2018-09-19T07:06:25.197Z,5.10
2018-09-19T07:08:54.467Z,3.93
2018-09-19T07:11:24.210Z,4.00
2018-09-19T07:13:53.546Z,4.87
2018-09-19T07:16:22.861Z,4.00
2018-09-19T07:18:52.165Z,4.30
2018-09-19T07:21:21.832Z,4.30
2018-09-19T07:23:51.087Z,4.80
2018-09-19T07:26:20.394Z,4.80
2018-09-19T07:28:50.038Z,4.57
2018-09-19T07:31:19.346Z,4.47
2018-09-19T07:33:48.643Z,4.50
2018-09-19T07:36:17.941Z,4.50
2018-09-19T07:38:47.278Z,4.47
2018-09-19T07:41:16.566Z,4.00
2018-09-19T07:43:46.274Z,4.20
2018-09-19T07:46:15.744Z,4.10
2018-09-19T07:48:45.095Z,4.13
2018-09-19T07:51:14.413Z,3.60
2018-09-19T07:53:43.705Z,3.90
2018-09-19T07:56:12.969Z,3.80
2018-09-19T07:58:43.179Z,4.07
2018-09-19T08:01:12.765Z,3.93
2018-09-19T08:03:42.032Z,4.07
2018-09-19T08:06:11.397Z,3.50
2018-09-19T08:08:40.794Z,3.70
2018-09-19T08:11:10.080Z,3.63
2018-09-19T08:13:39.470Z,3.67
2018-09-19T08:16:08.771Z,3.67
2018-09-19T08:18:38.079Z,3.13
2018-09-19T08:21:07.372Z,3.00
2018-09-19T08:23:36.686Z,3.40
2018-09-19T08:26:06.824Z,3.50
2018-09-19T08:28:36.123Z,3.17
2018-09-19T08:31:05.489Z,3.53
2018-09-19T08:33:34.840Z,3.30
2018-09-19T08:36:04.185Z,2.67
2018-09-19T08:38:33.496Z,3.07
2018-09-19T08:41:02.772Z,2.77
2018-09-19T08:43:32.093Z,3.50
2018-09-19T08:46:01.358Z,3.00
2018-09-19T08:48:30.658Z,3.27
2018-09-19T08:50:59.967Z,2.63
2018-09-19T08:53:29.437Z,3.23
2018-09-19T08:55:58.706Z,2.97
2018-09-19T08:58:27.954Z,3.10
2018-09-19T09:00:57.296Z,2.50
2018-09-19T09:03:26.573Z,2.67
2018-09-19T09:05:55.893Z,3.00
2018-09-19T09:08:25.167Z,2.40
2018-09-19T09:10:54.510Z,3.27
2018-09-19T09:13:23.820Z,3.00
2018-09-19T09:15:53.155Z,3.00
2018-09-19T09:18:22.439Z,2.87
2018-09-19T09:20:51.783Z,3.13
2018-09-19T09:23:21.071Z,3.67
2018-09-19T09:25:50.391Z,3.17
2018-09-19T09:28:19.655Z,3.10
2018-09-19T09:30:48.982Z,3.60
2018-09-19T09:33:18.258Z,3.10
2018-09-19T09:35:47.581Z,4.00
2018-09-19T09:38:16.932Z,3.90
2018-09-19T09:40:46.238Z,4.07
2018-09-19T09:43:15.598Z,4.00
2018-09-19T09:45:44.929Z,3.73
2018-09-19T09:48:14.183Z,4.13
2018-09-19T09:50:43.503Z,3.30
2018-09-19T09:53:12.796Z,3.20
2018-09-19T09:55:42.105Z,3.30
2018-09-19T09:58:11.423Z,3.77
2018-09-19T10:00:41.859Z,3.50
2018-09-19T10:03:12.158Z,3.80
2018-09-19T10:05:41.690Z,3.90
2018-09-19T10:08:10.950Z,4.30
2018-09-19T10:10:40.201Z,3.70
2018-09-19T10:13:09.507Z,4.00
2018-09-19T10:15:39.236Z,4.23
2018-09-19T10:18:09.112Z,4.30
2018-09-19T10:20:38.381Z,4.20
2018-09-19T10:23:07.733Z,4.30
2018-09-19T10:25:37.058Z,3.63
2018-09-19T10:28:06.341Z,3.70
2018-09-19T10:30:35.638Z,3.30
2018-09-19T10:33:04.903Z,3.50
2018-09-19T10:35:34.143Z,4.00
2018-09-19T10:38:03.449Z,3.87
2018-09-19T10:40:32.728Z,3.40
2018-09-19T10:43:02.409Z,2.90
2018-09-19T10:45:31.730Z,3.30
2018-09-19T10:48:00.989Z,3.17
2018-09-19T10:50:30.245Z,2.60
2018-09-19T10:52:59.542Z,2.60
2018-09-19T10:55:28.801Z,2.20
2018-09-19T10:57:58.221Z,2.53
2018-09-19T11:00:27.923Z,2.40
2018-09-19T11:02:57.245Z,2.90
2018-09-19T11:05:26.540Z,2.50
2018-09-19T11:07:55.885Z,2.30
2018-09-19T11:10:25.195Z,3.20
2018-09-19T11:12:55.014Z,2.37
2018-09-19T11:15:24.696Z,2.80
2018-09-19T11:17:54.003Z,3.70
2018-09-19T11:20:23.278Z,3.53
2018-09-19T11:22:52.893Z,2.97
2018-09-19T11:25:22.197Z,2.73
2018-09-19T11:27:51.489Z,3.20
2018-09-19T11:30:20.781Z,3.00
2018-09-19T11:32:50.149Z,2.70
2018-09-19T11:35:19.450Z,3.43
2018-09-19T11:37:48.757Z,3.50
2018-09-19T11:40:18.425Z,3.33
2018-09-19T11:42:47.724Z,3.67
2018-09-19T11:45:17.005Z,2.97
2018-09-19T11:47:47.134Z,3.60
2018-09-19T11:50:16.441Z,3.73
2018-09-19T11:52:45.725Z,3.43
2018-09-19T11:55:15.028Z,3.67
2018-09-19T11:57:44.357Z,3.40
2018-09-19T12:00:13.712Z,3.20
2018-09-19T12:02:43.040Z,2.83
2018-09-19T12:05:12.385Z,3.40
2018-09-19T12:07:41.692Z,3.10
2018-09-19T12:10:10.997Z,3.50
2018-09-19T12:12:40.291Z,2.90
2018-09-19T12:15:09.593Z,3.10
2018-09-19T12:17:38.877Z,2.90
2018-09-19T12:20:08.188Z,2.83
2018-09-19T12:22:37.509Z,2.90
2018-09-19T12:25:06.933Z,3.10
2018-09-19T12:27:36.215Z,3.50
2018-09-19T12:30:05.647Z,2.80
2018-09-19T12:32:34.937Z,3.20
2018-09-19T12:35:04.342Z,3.00
2018-09-19T12:37:33.897Z,3.00
2018-09-19T12:40:03.218Z,3.20
2018-09-19T12:42:32.500Z,2.87
2018-09-19T12:45:01.812Z,3.40
2018-09-19T12:47:31.130Z,3.67
2018-09-19T12:50:00.426Z,3.90
2018-09-19T12:52:30.433Z,3.17
2018-09-19T12:54:59.747Z,3.40
2018-09-19T12:57:29.060Z,2.73
2018-09-19T12:59:58.364Z,3.60
2018-09-19T13:02:27.696Z,3.17
2018-09-19T13:04:57.336Z,3.10
2018-09-19T13:07:26.657Z,3.33
2018-09-19T13:09:55.946Z,3.20
2018-09-19T13:12:25.273Z,3.30
2018-09-19T13:14:54.588Z,3.23
2018-09-19T13:17:23.942Z,2.77
2018-09-19T13:19:53.309Z,3.00
2018-09-19T13:22:22.601Z,2.80
2018-09-19T13:24:51.894Z,2.80
2018-09-19T13:27:21.220Z,3.03
2018-09-19T13:29:50.537Z,3.40
2018-09-19T13:32:19.846Z,3.40
2018-09-19T13:34:49.157Z,3.60
2018-09-19T13:37:18.458Z,3.30
2018-09-19T13:39:47.788Z,3.30
2018-09-19T13:42:17.089Z,3.60
2018-09-19T13:44:46.349Z,4.03
2018-09-19T13:47:15.653Z,4.00
2018-09-19T13:49:47.502Z,3.53
2018-09-19T13:52:16.825Z,3.77
2018-09-19T13:54:46.085Z,4.00
2018-09-19T13:57:15.364Z,3.80
2018-09-19T13:59:44.705Z,4.13
2018-09-19T14:02:13.981Z,3.67
2018-09-19T14:04:43.251Z,3.80
2018-09-19T14:07:12.498Z,3.57
2018-09-19T14:09:41.806Z,4.30
2018-09-19T14:12:11.262Z,4.47
2018-09-19T14:14:40.541Z,4.27
2018-09-19T14:17:09.847Z,4.30
2018-09-19T14:19:39.157Z,3.93
2018-09-19T14:22:08.427Z,3.67
2018-09-19T14:24:37.694Z,3.53
2018-09-19T14:27:06.929Z,4.10
2018-09-19T14:29:36.202Z,3.87
2018-09-19T14:32:05.449Z,3.57
2018-09-19T14:34:34.713Z,3.83
2018-09-19T14:37:03.941Z,3.83
2018-09-19T14:39:33.226Z,3.80
2018-09-19T14:42:02.513Z,3.87
2018-09-19T14:44:31.805Z,3.90
2018-09-19T14:47:01.028Z,3.33
2018-09-19T14:49:30.626Z,4.10
2018-09-19T14:51:59.955Z,4.47
2018-09-19T14:54:29.270Z,4.00
2018-09-19T14:56:58.537Z,4.37
2018-09-19T14:59:27.834Z,3.83
2018-09-19T15:01:57.153Z,4.00
2018-09-19T15:04:26.506Z,4.03
2018-09-19T15:06:55.746Z,4.07
2018-09-19T15:09:25.039Z,4.00
2018-09-19T15:11:54.378Z,3.60
2018-09-19T15:14:23.669Z,3.90
2018-09-19T15:16:52.992Z,3.70
2018-09-19T15:19:22.305Z,3.87
2018-09-19T15:21:51.601Z,4.57
2018-09-19T15:24:20.880Z,3.87
2018-09-19T15:26:50.275Z,4.00
2018-09-19T15:29:19.525Z,3.70
2018-09-19T15:31:48.833Z,3.93
2018-09-19T15:34:18.097Z,4.00
2018-09-19T15:36:47.411Z,3.77
2018-09-19T15:39:16.669Z,4.00
2018-09-19T15:41:45.997Z,3.57
2018-09-19T15:44:15.301Z,3.90
2018-09-19T15:46:44.662Z,3.90
2018-09-19T15:49:13.933Z,3.30
2018-09-19T15:51:43.291Z,3.30
2018-09-19T15:54:12.675Z,3.80
2018-09-19T15:56:41.952Z,4.30
2018-09-19T15:59:11.223Z,4.00
2018-09-19T16:01:40.658Z,3.80
2018-09-19T16:04:10.245Z,3.90
2018-09-19T16:06:39.598Z,3.67
2018-09-19T16:09:10.735Z,3.57
2018-09-19T16:11:40.335Z,3.87
2018-09-19T16:14:10.162Z,4.17
2018-09-19T16:16:39.529Z,3.77
2018-09-19T16:19:08.890Z,3.63
2018-09-19T16:21:38.216Z,4.20
2018-09-19T16:24:07.591Z,4.10
2018-09-19T16:26:36.926Z,4.57
2018-09-19T16:29:06.661Z,3.90
2018-09-19T16:31:36.013Z,4.67
2018-09-19T16:34:05.290Z,3.97
2018-09-19T16:36:34.649Z,4.20
2018-09-19T16:39:05.067Z,4.70
2018-09-19T16:41:34.461Z,4.00
2018-09-19T16:44:06.826Z,4.40
2018-09-19T16:46:37.012Z,4.20
2018-09-19T16:49:06.778Z,4.90
2018-09-19T16:51:36.182Z,4.13
2018-09-19T16:54:05.495Z,4.00
2018-09-19T16:56:34.799Z,4.70
2018-09-19T16:59:04.166Z,3.67
2018-09-19T17:01:33.481Z,4.50
2018-09-19T17:04:02.792Z,3.60
2018-09-19T17:06:32.092Z,4.53
2018-09-19T17:09:01.418Z,4.67
2018-09-19T17:11:30.723Z,4.60
2018-09-19T17:14:00.025Z,4.70
2018-09-19T17:16:29.636Z,4.40
2018-09-19T17:18:58.959Z,4.50
2018-09-19T17:21:28.254Z,4.83
2018-09-19T17:23:57.533Z,4.37
2018-09-19T17:26:26.837Z,4.70
2018-09-19T17:28:56.169Z,4.63
2018-09-19T17:31:25.434Z,5.00
2018-09-19T17:33:54.705Z,4.47
2018-09-19T17:36:23.961Z,4.57
2018-09-19T17:38:53.380Z,4.33
2018-09-19T17:41:22.638Z,4.20
2018-09-19T17:43:51.963Z,4.53
2018-09-19T17:46:21.216Z,4.33
2018-09-19T17:48:50.469Z,4.30
2018-09-19T17:51:19.769Z,4.83
2018-09-19T17:53:49.014Z,4.80
2018-09-19T17:56:19.360Z,4.70
2018-09-19T17:58:49.086Z,4.50
2018-09-19T18:01:18.387Z,4.50
2018-09-19T18:03:47.685Z,4.80
2018-09-19T18:06:16.975Z,4.57
2018-09-19T18:08:46.352Z,4.67
2018-09-19T18:11:15.951Z,4.60
2018-09-19T18:13:45.403Z,4.60
2018-09-19T18:16:14.677Z,4.93
2018-09-19T18:18:44.502Z,4.63
2018-09-19T18:21:13.798Z,4.83
2018-09-19T18:23:43.049Z,5.00
2018-09-19T18:26:12.763Z,4.70
2018-09-19T18:28:42.081Z,5.10
2018-09-19T18:31:11.470Z,4.80
2018-09-19T18:33:40.841Z,4.70
2018-09-19T18:36:10.556Z,4.87
2018-09-19T18:38:39.860Z,5.10
2018-09-19T18:41:09.367Z,4.53
2018-09-19T18:43:38.909Z,4.87
2018-09-19T18:46:08.270Z,5.50
2018-09-19T18:48:37.782Z,4.40
2018-09-19T18:51:07.361Z,4.63
2018-09-19T18:53:37.037Z,4.90
2018-09-19T18:56:06.541Z,5.03
2018-09-19T18:58:35.853Z,4.90
2018-09-19T19:01:05.415Z,4.57
2018-09-19T19:03:35.022Z,4.53
2018-09-19T19:06:04.784Z,4.67
2018-09-19T19:08:34.429Z,5.27
2018-09-19T19:11:04.356Z,4.80
2018-09-19T19:13:33.669Z,5.30
2018-09-19T19:16:03.722Z,5.10
2018-09-19T19:18:33.421Z,4.93
2018-09-19T19:21:02.781Z,5.30
2018-09-19T19:23:32.096Z,4.80
2018-09-19T19:26:01.782Z,5.20
2018-09-19T19:28:31.317Z,4.70
2018-09-19T19:31:00.627Z,5.30
2018-09-19T19:33:29.959Z,5.23
2018-09-19T19:35:59.290Z,5.03
2018-09-19T19:38:28.521Z,4.53
2018-09-19T19:40:57.817Z,5.00
2018-09-19T19:43:27.098Z,5.00
2018-09-19T19:45:56.755Z,5.20
2018-09-19T19:48:26.008Z,4.40
2018-09-19T19:50:55.420Z,5.03
2018-09-19T19:53:25.551Z,5.23
2018-09-19T19:55:54.789Z,5.00
2018-09-19T19:58:24.093Z,5.40
2018-09-19T20:00:53.435Z,4.60
2018-09-19T20:03:23.014Z,5.17
2018-09-19T20:05:52.384Z,5.47
2018-09-19T20:08:21.701Z,5.03
2018-09-19T20:10:51.053Z,4.87
2018-09-19T20:13:20.418Z,5.03
2018-09-19T20:15:50.005Z,5.07
2018-09-19T20:18:19.295Z,5.03
2018-09-19T20:20:48.610Z,5.00
2018-09-19T20:23:18.005Z,5.10
2018-09-19T20:25:47.342Z,4.60
2018-09-19T20:28:16.628Z,4.63
2018-09-19T20:30:45.937Z,4.90
2018-09-19T20:33:15.242Z,4.90
2018-09-19T20:35:44.569Z,5.10
2018-09-19T20:38:13.869Z,4.23
2018-09-19T20:40:43.197Z,4.83
2018-09-19T20:43:12.489Z,4.57
2018-09-19T20:45:42.069Z,4.63
2018-09-19T20:48:11.402Z,4.40
2018-09-19T20:50:40.699Z,4.63
2018-09-19T20:53:10.061Z,4.50
2018-09-19T20:55:39.373Z,4.50
2018-09-19T20:58:08.651Z,4.57
2018-09-19T21:00:38.013Z,4.40
2018-09-19T21:03:07.321Z,4.40
2018-09-19T21:05:36.705Z,4.40
2018-09-19T21:08:05.969Z,4.40
2018-09-19T21:10:35.345Z,4.50
2018-09-19T21:13:04.661Z,4.37
2018-09-19T21:15:33.992Z,4.43
2018-09-19T21:18:03.330Z,4.07
2018-09-19T21:20:32.647Z,4.73
2018-09-19T21:23:01.923Z,4.57
2018-09-19T21:25:31.226Z,4.50
2018-09-19T21:28:00.488Z,4.70
2018-09-19T21:30:29.825Z,4.73
2018-09-19T21:32:59.126Z,4.60
2018-09-19T21:35:28.441Z,4.33
2018-09-19T21:37:57.714Z,4.23
2018-09-19T21:40:27.103Z,4.20
2018-09-19T21:42:56.393Z,4.40
2018-09-19T21:45:25.652Z,4.27
2018-09-19T21:47:55.005Z,4.60
2018-09-19T21:50:24.315Z,4.67
2018-09-19T21:52:53.610Z,4.80
2018-09-19T21:55:22.861Z,4.70
2018-09-19T21:57:52.201Z,4.57
2018-09-19T22:00:21.518Z,4.40
2018-09-19T22:02:50.822Z,4.47
2018-09-19T22:05:20.108Z,4.53
2018-09-19T22:07:49.716Z,4.17
2018-09-19T22:10:18.997Z,4.37
2018-09-19T22:12:48.324Z,4.70
2018-09-19T22:15:17.617Z,4.77
2018-09-19T22:17:47.057Z,3.77
2018-09-19T22:20:16.338Z,4.30
2018-09-19T22:22:45.657Z,5.07
2018-09-19T22:25:14.933Z,4.90
2018-09-19T22:27:44.409Z,4.83
2018-09-19T22:30:13.606Z,6.27
2018-09-19T22:32:42.931Z,6.40
2018-09-19T22:35:12.221Z,5.30
2018-09-19T22:37:41.562Z,5.70
2018-09-19T22:40:10.972Z,7.20
2018-09-19T22:42:40.323Z,6.97
2018-09-19T22:45:09.605Z,6.00
2018-09-19T22:47:38.950Z,6.70
2018-09-19T22:50:08.212Z,6.10
2018-09-19T22:52:37.493Z,5.90
2018-09-19T22:55:06.977Z,6.20
2018-09-19T22:57:36.297Z,5.30
2018-09-19T23:00:05.638Z,5.10
2018-09-19T23:02:34.980Z,5.20
2018-09-19T23:05:04.267Z,6.40
2018-09-19T23:07:33.546Z,6.30
2018-09-19T23:10:02.804Z,6.47
2018-09-19T23:12:32.068Z,6.60
2018-09-19T23:15:01.354Z,7.20
2018-09-19T23:17:30.679Z,6.63
2018-09-19T23:19:59.987Z,7.27
2018-09-19T23:22:29.229Z,6.77
2018-09-19T23:24:58.510Z,8.50
2018-09-19T23:27:27.770Z,5.97
2018-09-19T23:29:57.062Z,6.30
2018-09-19T23:32:26.286Z,6.83
2018-09-19T23:34:55.562Z,5.70
2018-09-19T23:37:24.845Z,6.43
2018-09-19T23:39:54.109Z,5.80
2018-09-19T23:42:23.751Z,5.57
2018-09-19T23:44:53.033Z,6.07
2018-09-19T23:47:22.289Z,5.93
2018-09-19T23:49:51.589Z,7.00
2018-09-19T23:52:20.833Z,6.03
2018-09-19T23:54:50.125Z,6.10
2018-09-19T23:57:19.365Z,6.90
2018-09-19T23:59:48.634Z,6.50
